Etusivu
METAR-TAF:

METAR-TAF

Lentoasemat :

Bordj Badji Mokhtar, Algeria

Leveyspiiri: 21-22-30N, Pituuspiiri: 000-55-26E, korkeus merenpinnasta: 396 m

METAR: puuttuu

Aika: 13:56 (12:56 UTC)

Sääennuste

Tämä raportti tehtiin 1 tunti ja 56 minuuttia sitten, kello 11.00 UTC
Ennuste voimassa 25. päivästä klo 12 UTC - 25. päivään klo 21 UTC
Tuuli 14 kn idästä
Näkyvyys 10 km tai enemmän
Hajanaisia pilviä 4600 ft:n korkeudessa
Hajonneita pilviä 10000 ft:n korkeudessa
Todennäköisyys 30% :
Ajoittain
25. päivästä klo 12 UTC - 25. päivään klo 15 UTC
Tuuli 15 kn idästä puuskistuen 25 kn:hen
Näkyvyys: 5000 m
Muutamia pilviä 4000 ft:n korkeudessa, Cumulonimbus.
matalaa hiekkatuisku

TAF: DATM 251100Z 2512/2521 08014KT 9999 SCT046 BKN100 PROB30 TEMPO 2512/2515 08015G25KT 5000 DRSA FEW040CB

Säähavainnot ja -ennusteet yli 4000 lentoasemalta (METAR- ja TAF-raportit).

Käytössä olevat sääasemat on merkitty karttaan keltaisilla ja punaisilla pisteillä.

Aseta hiiri pisteen päälle nähdäksesi sääaseman nimen.

Klikkaa sitten nähdäksesi säähavainnot ja -ennusteet.

Kartan vaihtaminen: klikkaa mustalla rastilla varustettuja vihreitä pisteitä, niin voit zoomata sisään; viivalla varustettua vihreää pistettä, niin voit zoomata ulos tai vihreitä nuolia, niin pääset viereisille kartoille.


METAR-TAF: